Time;durP1;ratioP1;P1;durP2;ratioP2;P2;SDS_P1;SDS_P2;PMS_P1;PMS_P2;Temp;Humidity;BMP_temperature;BMP_pressure;BME280_temperature;BME280_humidity;BME280_pressure;Samples;Min_cycle;Max_cycle;Signal;HPM_P1;HPM_P2
2022/07/17 00:01:15;;;;;;;10.30;3.60;;;;;;;18.94;52.34;102090.56;4943027;28;119879;-80
2022/07/17 00:03:41;;;;;;;5.80;1.88;;;;;;;18.98;51.90;102103.03;4938105;28;119829;-80
2022/07/17 00:06:07;;;;;;;8.30;2.20;;;;;;;18.90;52.02;102093.50;4932456;28;122743;-81
2022/07/17 00:08:32;;;;;;;8.18;2.45;;;;;;;18.93;52.24;102106.47;4915449;28;122805;-80
2022/07/17 00:11:03;;;;;;;8.05;2.38;;;;;;;18.92;52.44;102104.13;4932995;28;119942;-81
2022/07/17 00:13:29;;;;;;;10.90;2.22;;;;;;;18.89;51.73;102100.28;4928884;28;120117;-80
2022/07/17 00:15:55;;;;;;;4.43;1.55;;;;;;;18.90;52.59;102098.28;4937988;28;123118;-80
2022/07/17 00:18:20;;;;;;;5.95;1.48;;;;;;;18.85;52.61;102085.81;4937071;28;120649;-80
2022/07/17 00:20:46;;;;;;;6.43;1.50;;;;;;;18.93;52.55;102094.56;4923043;28;123133;-80
2022/07/17 00:23:12;;;;;;;5.28;1.33;;;;;;;18.89;52.14;102086.38;4931739;28;120493;-80
2022/07/17 00:25:37;;;;;;;5.70;2.40;;;;;;;18.92;52.60;102088.22;4913801;28;122467;-80
2022/07/17 00:28:03;;;;;;;6.00;1.60;;;;;;;18.99;52.13;102093.44;4934801;28;119841;-80
2022/07/17 00:30:29;;;;;;;5.57;1.60;;;;;;;19.00;52.34;102083.09;4936674;28;119627;-80
2022/07/17 00:32:54;;;;;;;5.57;1.40;;;;;;;18.97;52.63;102072.91;4931822;28;119663;-80
2022/07/17 00:35:20;;;;;;;4.93;1.70;;;;;;;18.97;52.41;102078.47;4935289;28;122762;-80
2022/07/17 00:37:48;;;;;;;5.00;1.77;;;;;;;18.94;52.62;102080.19;4913647;28;120793;-80
2022/07/17 00:40:18;;;;;;;7.97;2.22;;;;;;;18.91;52.32;102083.91;4931177;28;121538;-80
2022/07/17 00:42:44;;;;;;;7.80;1.85;;;;;;;18.81;52.90;102071.31;4924671;28;121090;-80
2022/07/17 00:45:12;;;;;;;5.43;1.45;;;;;;;18.84;52.58;102075.94;4926660;28;120189;-80
2022/07/17 00:47:52;;;;;;;5.18;1.55;;;;;;;18.81;52.92;102081.69;4925998;28;120147;-80
2022/07/17 00:50:18;;;;;;;6.90;1.73;;;;;;;18.73;53.08;102070.16;4918841;28;119865;-80
2022/07/17 00:52:44;;;;;;;6.83;1.70;;;;;;;18.68;53.00;102068.00;4925716;28;119808;-80
2022/07/17 00:55:12;;;;;;;7.72;2.20;;;;;;;18.68;53.17;102079.13;4930119;28;120452;-79
2022/07/17 00:58:01;;;;;;;7.07;1.97;;;;;;;18.67;53.84;102089.47;4905259;28;119640;-80
2022/07/17 01:00:27;;;;;;;5.55;1.80;;;;;;;18.58;53.70;102080.41;4932048;28;119461;-80
2022/07/17 01:02:59;;;;;;;6.63;1.88;;;;;;;18.66;54.04;102092.72;4924141;28;120117;-80
2022/07/17 01:05:25;;;;;;;6.37;1.70;;;;;;;18.63;53.66;102083.31;4896910;28;121879;-80
2022/07/17 01:07:52;;;;;;;6.57;1.70;;;;;;;18.72;53.23;102096.41;4912660;28;123081;-80
2022/07/17 01:10:19;;;;;;;4.87;1.80;;;;;;;18.73;53.35;102084.06;4913402;28;119767;-81
2022/07/17 01:12:46;;;;;;;4.95;1.80;;;;;;;18.74;52.88;102093.94;4945206;28;122026;-80
2022/07/17 01:15:12;;;;;;;5.57;1.52;;;;;;;18.77;53.75;102087.41;4910488;28;122871;-80
2022/07/17 01:17:38;;;;;;;3.95;1.40;;;;;;;18.80;52.50;102091.25;4927282;28;119944;-80
2022/07/17 01:20:08;;;;;;;6.45;1.70;;;;;;;18.82;52.79;102089.53;4927242;28;119700;-80
2022/07/17 01:22:47;;;;;;;4.70;1.67;;;;;;;18.84;52.59;102087.03;4897377;28;121432;-80
2022/07/17 01:25:14;;;;;;;4.72;1.50;;;;;;;18.86;52.82;102094.91;4894922;28;119489;-81
2022/07/17 01:27:41;;;;;;;4.83;1.40;;;;;;;18.88;52.75;102092.44;4924665;28;119911;-80
2022/07/17 01:30:08;;;;;;;7.43;1.90;;;;;;;18.90;52.51;102096.25;4931068;28;120286;-81
2022/07/17 01:32:39;;;;;;;6.73;1.60;;;;;;;18.92;52.53;102101.34;4914504;28;122105;-80
2022/07/17 01:35:06;;;;;;;9.68;1.90;;;;;;;18.91;52.38;102095.03;4929598;28;121517;-80
2022/07/17 01:37:31;;;;;;;6.45;1.80;;;;;;;18.95;52.83;102103.22;4925200;28;120423;-80
2022/07/17 01:39:57;;;;;;;4.80;1.60;;;;;;;18.95;52.62;102097.66;4914044;28;122366;-80
2022/07/17 01:42:25;;;;;;;5.83;1.70;;;;;;;18.92;53.05;102101.34;4918333;28;120432;-80
2022/07/17 01:44:52;;;;;;;7.05;1.70;;;;;;;18.91;52.68;102103.38;4888180;28;119973;-80
2022/07/17 01:47:18;;;;;;;5.20;1.50;;;;;;;18.88;52.67;102092.44;4900017;28;123135;-80
2022/07/17 01:49:49;;;;;;;6.63;1.87;;;;;;;18.83;52.65;102091.06;4929503;28;120380;-80
2022/07/17 01:52:15;;;;;;;3.97;1.60;;;;;;;18.83;52.84;102095.88;4896568;28;122952;-80
2022/07/17 01:54:42;;;;;;;6.70;1.85;;;;;;;18.87;52.87;102102.00;4912316;28;120538;-80
2022/07/17 01:57:08;;;;;;;6.43;1.70;;;;;;;18.76;52.89;102096.22;4923736;28;120732;-80
2022/07/17 01:59:35;;;;;;;7.35;1.98;;;;;;;18.81;52.84;102112.25;4911250;28;123398;-80
2022/07/17 02:02:01;;;;;;;7.63;1.70;;;;;;;18.69;53.11;102100.09;4928353;28;119945;-80
2022/07/17 02:04:27;;;;;;;7.07;1.88;;;;;;;18.72;53.50;102115.88;4894987;28;120619;-80
2022/07/17 02:06:54;;;;;;;5.63;1.60;;;;;;;18.62;53.24;102109.56;4926506;28;120466;-80
2022/07/17 02:09:21;;;;;;;4.95;1.50;;;;;;;18.59;53.50;102106.94;4951724;28;119959;-80
2022/07/17 02:11:46;;;;;;;6.20;1.50;;;;;;;18.58;53.67;102108.19;4924068;28;119932;-80
2022/07/17 02:14:12;;;;;;;5.65;1.63;;;;;;;18.49;53.79;102105.47;4894766;28;122712;-80
2022/07/17 02:16:38;;;;;;;5.27;1.93;;;;;;;18.48;54.07;102115.81;4929468;28;121652;-80
2022/07/17 02:19:03;;;;;;;5.03;1.60;;;;;;;18.51;53.88;102126.00;4912333;28;122270;-80
2022/07/17 02:21:29;;;;;;;6.23;1.80;;;;;;;18.43;53.88;102116.44;4925483;28;121033;-80
2022/07/17 02:23:55;;;;;;;8.37;2.00;;;;;;;18.44;54.08;102128.31;4928324;28;120184;-80
2022/07/17 02:26:21;;;;;;;5.60;1.80;;;;;;;18.35;54.35;102116.03;4909575;28;120666;-80
2022/07/17 02:28:46;;;;;;;8.20;2.10;;;;;;;18.38;54.39;102126.19;4932037;28;122660;-80
2022/07/17 02:31:12;;;;;;;8.37;2.00;;;;;;;18.33;54.08;102115.72;4928427;28;119823;-80
2022/07/17 02:33:38;;;;;;;5.93;1.70;;;;;;;18.32;54.86;102113.41;4922805;28;120391;-81
2022/07/17 02:36:04;;;;;;;5.53;1.87;;;;;;;18.28;54.73;102108.03;4910497;28;119872;-80
2022/07/17 02:38:29;;;;;;;7.53;1.90;;;;;;;18.24;54.85;102112.22;4925530;28;122329;-80
2022/07/17 02:40:55;;;;;;;7.40;1.88;;;;;;;18.26;54.90;102110.50;4939227;28;124994;-80
2022/07/17 02:43:21;;;;;;;5.82;1.73;;;;;;;18.26;55.05;102099.41;4927732;28;120280;-81
2022/07/17 02:45:46;;;;;;;5.67;1.80;;;;;;;18.27;55.36;102100.16;4929213;28;119582;-81
2022/07/17 02:48:12;;;;;;;6.67;2.10;;;;;;;18.28;55.19;102105.25;4929085;28;121608;-81
2022/07/17 02:50:38;;;;;;;4.87;1.97;;;;;;;18.23;54.89;102105.91;4927107;28;120000;-80
2022/07/17 02:53:03;;;;;;;6.17;1.70;;;;;;;18.31;55.41;102115.44;4933802;28;120254;-81
2022/07/17 02:55:29;;;;;;;6.65;1.73;;;;;;;18.33;55.71;102120.50;4925928;28;119872;-80
2022/07/17 02:57:55;;;;;;;7.60;1.88;;;;;;;18.35;55.79;102123.59;4917578;28;122361;-81
2022/07/17 03:00:20;;;;;;;4.65;1.52;;;;;;;18.36;55.33;102125.13;4924442;28;120955;-80
2022/07/17 03:02:47;;;;;;;5.38;1.70;;;;;;;18.37;55.48;102132.22;4930931;28;119628;-80
2022/07/17 03:05:14;;;;;;;6.25;1.70;;;;;;;18.36;55.57;102127.91;4930166;28;119628;-80
2022/07/17 03:07:46;;;;;;;6.38;1.90;;;;;;;18.30;55.46;102119.44;4907441;28;121390;-80
2022/07/17 03:10:13;;;;;;;6.13;1.98;;;;;;;18.38;55.68;102128.97;4926545;28;119585;-80
2022/07/17 03:12:39;;;;;;;10.60;2.05;;;;;;;18.30;55.74;102125.00;4920503;28;119963;-80
2022/07/17 03:15:05;;;;;;;7.77;1.90;;;;;;;18.32;55.38;102130.09;4911660;28;121734;-80
2022/07/17 03:17:31;;;;;;;6.53;1.67;;;;;;;18.35;55.43;102129.91;4912721;28;120262;-80
2022/07/17 03:19:58;;;;;;;5.60;1.60;;;;;;;18.38;55.40;102128.19;4929081;28;120527;-80
2022/07/17 03:22:23;;;;;;;8.67;2.20;;;;;;;18.36;55.91;102123.13;4914584;28;119780;-80
2022/07/17 03:24:55;;;;;;;5.47;1.53;;;;;;;18.34;55.50;102114.47;4929271;28;120292;-81
2022/07/17 03:27:20;;;;;;;8.05;1.70;;;;;;;18.44;55.89;102122.75;4911733;28;123483;-80
2022/07/17 03:29:46;;;;;;;6.37;1.77;;;;;;;18.41;55.48;102119.69;4903106;28;121419;-80
2022/07/17 03:32:12;;;;;;;7.10;1.87;;;;;;;18.40;55.86;102120.94;4914495;28;119876;-80
2022/07/17 03:34:38;;;;;;;6.27;1.67;;;;;;;18.35;56.13;102106.91;4911068;28;119646;-80
2022/07/17 03:37:04;;;;;;;7.70;1.60;;;;;;;18.39;55.95;102124.19;4909475;28;122170;-80
2022/07/17 03:39:30;;;;;;;7.17;1.70;;;;;;;18.35;55.66;102113.25;4922156;28;122815;-80
2022/07/17 03:41:56;;;;;;;5.60;1.60;;;;;;;18.37;56.02;102110.75;4926059;28;120087;-81
2022/07/17 03:44:22;;;;;;;6.38;2.00;;;;;;;18.42;55.87;102124.00;4927404;28;119959;-80
2022/07/17 03:46:48;;;;;;;9.27;1.90;;;;;;;18.45;55.87;102132.63;4920047;28;120361;-81
2022/07/17 03:49:14;;;;;;;6.72;1.80;;;;;;;18.46;55.65;102128.66;4925375;28;121502;-80
2022/07/17 03:51:40;;;;;;;5.22;1.90;;;;;;;18.48;55.70;102126.16;4931499;28;121848;-80
2022/07/17 03:54:06;;;;;;;7.40;1.88;;;;;;;18.49;55.59;102131.25;4939587;28;122850;-80
2022/07/17 03:56:31;;;;;;;5.32;2.00;;;;;;;18.46;55.92;102123.09;4922696;28;119689;-81
2022/07/17 03:58:57;;;;;;;7.45;1.80;;;;;;;18.56;56.01;102122.56;4919557;28;122813;-80
2022/07/17 04:01:22;;;;;;;6.47;1.98;;;;;;;18.53;56.06;102104.06;4910450;28;120186;-80
2022/07/17 04:03:48;;;;;;;7.55;1.90;;;;;;;18.60;55.77;102111.25;4919665;28;121703;-80
2022/07/17 04:06:16;;;;;;;6.93;1.85;;;;;;;18.69;55.94;102131.47;4926753;28;122733;-80
2022/07/17 04:08:42;;;;;;;7.05;1.92;;;;;;;18.71;55.72;102139.34;4927512;28;119928;-80
2022/07/17 04:11:08;;;;;;;6.88;2.10;;;;;;;18.73;55.81;102130.53;4927396;28;119889;-81
2022/07/17 04:13:34;;;;;;;7.93;1.95;;;;;;;18.65;55.36;102118.97;4927381;28;120372;-80
2022/07/17 04:16:00;;;;;;;7.15;1.98;;;;;;;18.69;55.63;102130.69;4933148;28;119725;-80
2022/07/17 04:18:29;;;;;;;5.45;1.77;;;;;;;18.69;55.68;102130.69;4916573;28;122942;-80
2022/07/17 04:20:57;;;;;;;6.00;1.70;;;;;;;18.75;55.89;102137.16;4924902;28;119737;-80
2022/07/17 04:23:23;;;;;;;4.97;1.60;;;;;;;18.76;56.08;102138.69;4920324;28;119742;-80
2022/07/17 04:25:48;;;;;;;5.33;1.80;;;;;;;18.80;55.80;102136.50;4923544;28;120297;-80
2022/07/17 04:28:14;;;;;;;6.67;1.83;;;;;;;18.82;56.01;102133.25;4920679;28;119905;-80
2022/07/17 04:30:40;;;;;;;7.17;1.77;;;;;;;18.87;55.98;102138.91;4925984;28;120806;-80
2022/07/17 04:33:06;;;;;;;7.40;2.03;;;;;;;18.92;55.62;102148.63;4931804;28;120899;-80
2022/07/17 04:35:32;;;;;;;6.23;1.90;;;;;;;18.93;55.28;102141.84;4912074;28;119945;-80
2022/07/17 04:37:58;;;;;;;6.10;1.80;;;;;;;18.96;55.66;102150.00;4934902;28;120265;-80
2022/07/17 04:40:24;;;;;;;8.15;1.83;;;;;;;18.96;55.92;102152.78;4913839;28;119579;-81
2022/07/17 04:42:49;;;;;;;7.53;1.75;;;;;;;18.96;55.12;102150.00;4929674;28;121837;-80
2022/07/17 04:45:15;;;;;;;6.47;2.03;;;;;;;18.92;55.93;102152.16;4931328;28;121044;-80
2022/07/17 04:47:43;;;;;;;9.32;2.20;;;;;;;18.91;56.35;102158.97;4915113;28;120341;-80
2022/07/17 04:50:15;;;;;;;5.97;1.90;;;;;;;18.87;56.17;102160.41;4931590;28;120239;-80
2022/07/17 04:52:40;;;;;;;7.43;2.15;;;;;;;18.83;55.99;102155.00;4919800;28;120533;-80
2022/07/17 04:55:06;;;;;;;7.00;1.80;;;;;;;18.88;56.01;102159.91;4931277;28;120122;-80
2022/07/17 04:57:32;;;;;;;7.10;1.80;;;;;;;18.85;56.24;102163.66;4932732;28;120264;-80
2022/07/17 04:59:58;;;;;;;8.83;2.17;;;;;;;18.79;56.78;102159.97;4917216;28;123534;-80
2022/07/17 05:02:24;;;;;;;6.43;1.97;;;;;;;18.84;56.51;102164.91;4915363;28;121855;-80
2022/07/17 05:04:49;;;;;;;7.53;2.00;;;;;;;18.86;56.45;102167.97;4930834;28;123376;-80
2022/07/17 05:07:15;;;;;;;9.07;1.80;;;;;;;18.87;56.39;102171.53;4927541;28;119854;-80
2022/07/17 05:09:47;;;;;;;6.70;1.90;;;;;;;18.92;56.34;102168.84;4914760;28;119734;-80
2022/07/17 05:12:18;;;;;;;5.50;1.73;;;;;;;18.90;56.62;102167.78;4912355;28;120289;-80
2022/07/17 05:14:43;;;;;;;7.40;2.10;;;;;;;18.83;56.51;102163.34;4942768;28;120099;-80
2022/07/17 05:17:13;;;;;;;8.57;2.00;;;;;;;18.86;56.43;102161.63;4926934;28;121695;-80
2022/07/17 05:19:38;;;;;;;5.70;1.93;;;;;;;18.86;56.58;102173.53;4930686;28;122869;-80
2022/07/17 05:22:05;;;;;;;8.77;2.00;;;;;;;18.83;56.60;102168.91;4903796;28;119879;-80
2022/07/17 05:24:30;;;;;;;6.55;2.03;;;;;;;18.78;57.06;102155.66;4898174;28;123650;-80
2022/07/17 05:26:56;;;;;;;7.85;2.05;;;;;;;18.82;56.88;102161.03;4930230;28;119986;-80
2022/07/17 05:29:22;;;;;;;4.82;2.00;;;;;;;18.84;56.95;102153.78;4913973;28;122822;-80
2022/07/17 05:31:48;;;;;;;7.50;2.10;;;;;;;18.88;57.09;102153.59;4926691;28;120483;-81
2022/07/17 05:34:14;;;;;;;10.20;2.30;;;;;;;18.86;57.02;102156.06;4912710;28;119902;-80
2022/07/17 05:36:39;;;;;;;7.33;1.83;;;;;;;18.96;56.91;102165.91;4916607;28;122681;-80
2022/07/17 05:39:05;;;;;;;5.47;1.97;;;;;;;18.95;56.88;102159.59;4930729;28;121722;-80
2022/07/17 05:41:31;;;;;;;7.17;2.13;;;;;;;18.99;57.02;102156.63;4930165;28;119986;-80
2022/07/17 05:43:56;;;;;;;8.47;2.07;;;;;;;19.06;57.23;102163.84;4926040;28;121288;-80
2022/07/17 05:46:22;;;;;;;8.10;2.08;;;;;;;19.13;56.95;102169.03;4913596;28;119844;-80
2022/07/17 05:48:47;;;;;;;7.47;2.28;;;;;;;19.19;56.99;102169.94;4918037;28;120394;-80
2022/07/17 05:51:13;;;;;;;10.07;2.22;;;;;;;19.20;56.98;102158.34;4928452;28;120295;-80
2022/07/17 05:53:39;;;;;;;5.80;2.05;;;;;;;19.25;56.65;102165.25;4936017;28;121236;-80
2022/07/17 05:56:05;;;;;;;8.73;2.50;;;;;;;19.36;56.68;102168.25;4929817;28;120197;-81
2022/07/17 05:58:31;;;;;;;9.93;2.30;;;;;;;19.40;56.80;102166.06;4909361;28;121500;-80
2022/07/17 06:00:56;;;;;;;6.33;1.97;;;;;;;19.47;56.56;102173.28;4925306;28;119815;-81
2022/07/17 06:03:22;;;;;;;8.30;2.10;;;;;;;19.53;56.38;102172.16;4932350;28;122438;-81
2022/07/17 06:05:48;;;;;;;7.35;2.22;;;;;;;19.58;55.94;102177.06;4948905;28;121386;-80
2022/07/17 06:08:13;;;;;;;7.50;2.10;;;;;;;19.54;56.42;102161.78;4938103;28;120964;-81
2022/07/17 06:10:39;;;;;;;8.10;2.15;;;;;;;19.69;56.75;102170.19;4927962;28;122994;-80
2022/07/17 06:13:05;;;;;;;9.63;2.40;;;;;;;19.77;56.04;102160.97;4912821;28;119886;-80
2022/07/17 06:15:31;;;;;;;7.55;2.17;;;;;;;19.84;56.25;102162.59;4927643;28;119719;-80
2022/07/17 06:18:01;;;;;;;9.55;2.22;;;;;;;19.97;56.28;102168.66;4925535;28;120228;-81
2022/07/17 06:20:27;;;;;;;7.23;2.03;;;;;;;20.05;56.11;102172.56;4913638;28;119849;-81
2022/07/17 06:22:52;;;;;;;8.45;2.10;;;;;;;20.11;55.68;102170.69;4913455;28;119786;-81
2022/07/17 06:25:18;;;;;;;7.23;2.13;;;;;;;20.19;55.28;102168.25;4931097;28;122821;-81
2022/07/17 06:27:44;;;;;;;8.00;2.40;;;;;;;20.25;55.19;102169.13;4925878;28;119706;-81
2022/07/17 06:30:11;;;;;;;8.03;1.90;;;;;;;20.25;54.86;102166.31;4918838;28;123790;-81
2022/07/17 06:32:37;;;;;;;7.30;1.90;;;;;;;20.37;55.27;102173.63;4911453;28;119780;-80
2022/07/17 06:35:03;;;;;;;6.93;2.05;;;;;;;20.42;55.55;102170.19;4917798;28;121443;-81
2022/07/17 06:37:28;;;;;;;9.63;1.83;;;;;;;20.54;55.04;102173.88;4912648;28;121348;-81
2022/07/17 06:39:54;;;;;;;8.20;2.13;;;;;;;20.66;55.10;102191.56;4911282;28;120599;-81
2022/07/17 06:42:20;;;;;;;6.20;1.90;;;;;;;20.70;54.68;102181.75;4929145;28;121523;-81
2022/07/17 06:44:45;;;;;;;7.03;2.20;;;;;;;20.82;54.89;102189.03;4922378;28;120472;-81
2022/07/17 06:47:11;;;;;;;8.17;2.10;;;;;;;20.87;53.56;102189.59;4933182;28;119930;-81
2022/07/17 06:49:37;;;;;;;7.07;1.77;;;;;;;20.89;53.31;102192.66;4911200;28;122977;-81
2022/07/17 06:52:03;;;;;;;9.10;2.00;;;;;;;20.80;53.36;102182.38;4925597;28;119689;-81
2022/07/17 06:54:31;;;;;;;9.10;2.17;;;;;;;20.88;53.56;102199.50;4929021;28;120105;-80
2022/07/17 06:57:02;;;;;;;8.20;2.13;;;;;;;20.89;53.19;102201.03;4912440;28;122968;-81
2022/07/17 06:59:28;;;;;;;9.73;1.88;;;;;;;20.94;52.66;102198.31;4913169;28;119919;-81
2022/07/17 07:01:54;;;;;;;7.63;2.00;;;;;;;21.06;52.73;102216.75;4895076;28;122006;-81
2022/07/17 07:04:22;;;;;;;6.22;1.73;;;;;;;21.06;52.52;102205.59;4922752;28;121166;-81
2022/07/17 07:06:48;;;;;;;7.57;1.90;;;;;;;21.19;53.13;102210.03;4915135;28;119971;-80
2022/07/17 07:09:14;;;;;;;6.37;1.90;;;;;;;21.27;52.08;102208.38;4947180;28;121775;-81
2022/07/17 07:11:39;;;;;;;6.85;1.73;;;;;;;21.34;51.42;102224.72;4910163;28;120238;-81
2022/07/17 07:14:06;;;;;;;6.05;2.05;;;;;;;21.35;52.03;102218.66;4909571;28;122407;-81
2022/07/17 07:16:32;;;;;;;7.18;1.45;;;;;;;21.41;51.04;102236.25;4920692;28;122884;-80
2022/07/17 07:18:58;;;;;;;6.30;1.70;;;;;;;21.43;51.28;102216.97;4910377;28;120841;-81
2022/07/17 07:21:25;;;;;;;4.17;1.40;;;;;;;21.47;50.50;102216.00;4928773;28;122519;-83
2022/07/17 07:24:00;;;;;;;9.30;1.97;;;;;;;21.46;50.58;102215.22;4930077;28;120130;-82
2022/07/17 07:26:25;;;;;;;6.70;1.50;;;;;;;21.49;52.26;102207.88;4908038;28;120089;-82
2022/07/17 07:28:51;;;;;;;5.70;1.80;;;;;;;21.65;51.14;102213.66;4913258;28;120944;-82
2022/07/17 07:31:17;;;;;;;6.27;1.80;;;;;;;21.75;51.22;102206.66;4937133;28;119741;-82
2022/07/17 07:33:45;;;;;;;9.07;2.00;;;;;;;21.86;50.87;102220.00;4919979;28;119576;-82
2022/07/17 07:36:11;;;;;;;5.05;1.50;;;;;;;21.92;50.12;102220.81;4911634;28;123409;-82
2022/07/17 07:38:37;;;;;;;4.00;1.50;;;;;;;21.91;50.38;102219.28;4923707;28;120201;-82
2022/07/17 07:41:03;;;;;;;6.37;1.60;;;;;;;21.90;51.29;102220.53;4908141;28;121807;-82
2022/07/17 07:43:29;;;;;;;3.40;1.57;;;;;;;21.93;49.74;102229.94;4928288;28;120332;-82
2022/07/17 07:45:58;;;;;;;5.47;1.52;;;;;;;21.89;49.79;102232.97;4927272;28;120243;-83
2022/07/17 07:48:24;;;;;;;6.25;1.70;;;;;;;21.82;49.90;102225.03;4911774;28;119834;-82
2022/07/17 07:50:50;;;;;;;3.92;1.40;;;;;;;21.85;49.38;102224.03;4933141;28;120257;-82
2022/07/17 07:53:15;;;;;;;5.80;1.48;;;;;;;21.91;49.64;102227.66;4939903;28;119909;-82
2022/07/17 07:55:44;;;;;;;5.40;1.63;;;;;;;22.12;49.51;102230.41;4933823;28;120096;-82
2022/07/17 07:58:12;;;;;;;4.23;1.53;;;;;;;22.36;48.89;102242.84;4893537;28;120105;-82
2022/07/17 08:00:39;;;;;;;5.18;1.50;;;;;;;22.61;48.57;102238.44;4910940;28;121305;-82
2022/07/17 08:03:05;;;;;;;4.03;1.20;;;;;;;22.73;48.65;102235.75;4910430;28;122698;-82
2022/07/17 08:05:31;;;;;;;4.28;1.30;;;;;;;22.95;47.28;102247.13;4929609;28;120282;-82
2022/07/17 08:08:00;;;;;;;5.40;1.50;;;;;;;23.08;47.45;102241.81;4957911;28;122271;-83
2022/07/17 08:10:26;;;;;;;5.90;1.50;;;;;;;23.23;46.94;102234.03;4922875;28;124367;-81
2022/07/17 08:12:52;;;;;;;4.10;1.40;;;;;;;23.35;46.35;102250.84;4936424;28;119888;-82
2022/07/17 08:15:21;;;;;;;4.88;1.58;;;;;;;23.49;45.84;102259.06;4930065;28;120127;-83
2022/07/17 08:17:50;;;;;;;4.07;1.20;;;;;;;23.69;44.86;102249.75;4929461;28;120131;-83
2022/07/17 08:20:16;;;;;;;4.78;1.40;;;;;;;23.83;45.64;102243.16;4911983;28;122302;-82
2022/07/17 08:22:45;;;;;;;5.53;1.37;;;;;;;24.03;44.39;102253.38;4928240;28;120362;-82
2022/07/17 08:25:12;;;;;;;5.25;1.42;;;;;;;24.03;44.62;102253.38;4926926;28;123262;-82
2022/07/17 08:27:39;;;;;;;3.00;1.40;;;;;;;24.29;44.17;102261.59;4924690;28;123685;-82
2022/07/17 08:30:10;;;;;;;3.97;1.50;;;;;;;24.39;44.21;102265.69;4941463;28;121047;-82
2022/07/17 08:32:37;;;;;;;6.35;1.40;;;;;;;24.32;43.76;102269.00;4928116;28;120374;-83
2022/07/17 08:35:03;;;;;;;3.25;1.20;;;;;;;24.13;44.02;102265.91;4944239;28;120293;-82
2022/07/17 08:37:28;;;;;;;5.55;1.55;;;;;;;24.07;44.99;102267.91;4942543;28;120732;-82
2022/07/17 08:39:55;;;;;;;3.70;1.38;;;;;;;24.29;44.89;102269.25;4892943;28;123918;-82
2022/07/17 08:42:21;;;;;;;4.25;1.40;;;;;;;24.41;44.50;102268.75;4944713;28;120870;-82
2022/07/17 08:44:47;;;;;;;3.67;1.23;;;;;;;24.55;44.48;102272.56;4926678;28;120384;-82
2022/07/17 08:47:14;;;;;;;3.28;1.30;;;;;;;24.58;42.19;102276.38;4939290;28;120572;-83
2022/07/17 08:49:44;;;;;;;5.47;1.30;;;;;;;24.51;44.69;102269.25;4938432;28;120556;-83
2022/07/17 08:52:11;;;;;;;5.10;1.50;;;;;;;24.58;43.85;102296.03;4924617;28;121415;-83
2022/07/17 08:54:36;;;;;;;3.80;1.63;;;;;;;24.49;44.61;102292.19;4942319;28;120908;-83
2022/07/17 08:57:05;;;;;;;3.70;1.30;;;;;;;24.42;43.05;102303.94;4910844;28;123507;-83
2022/07/17 08:59:36;;;;;;;5.70;1.65;;;;;;;24.25;43.84;102280.69;4898253;28;121643;-83
2022/07/17 09:02:04;;;;;;;2.67;1.20;;;;;;;24.31;44.38;102294.75;4937076;28;123099;-83
2022/07/17 09:04:29;;;;;;;4.10;1.30;;;;;;;24.48;43.76;102285.06;4938484;28;120760;-83
2022/07/17 09:07:02;;;;;;;4.88;1.40;;;;;;;24.82;43.12;102299.06;4937438;28;122717;-83
2022/07/17 09:09:28;;;;;;;4.38;1.38;;;;;;;24.95;42.78;102293.69;4943142;28;123050;-83
2022/07/17 09:11:58;;;;;;;3.80;1.20;;;;;;;25.15;41.99;102306.72;4922976;28;121278;-83
2022/07/17 09:14:24;;;;;;;3.47;1.40;;;;;;;25.06;41.12;102296.50;4939364;28;123759;-82
2022/07/17 09:16:54;;;;;;;3.55;1.27;;;;;;;25.10;39.95;102304.69;4921625;28;121355;-83
2022/07/17 09:19:31;;;;;;;2.75;1.40;;;;;;;25.04;41.74;102290.63;4913653;28;121506;-83
2022/07/17 09:22:24;;;;;;;4.80;1.20;;;;;;;25.24;41.37;102295.19;4937858;28;121478;-82
2022/07/17 09:24:52;;;;;;;3.28;1.40;;;;;;;25.19;41.11;102300.81;4924999;28;122886;-82
2022/07/17 09:27:24;;;;;;;3.80;1.20;;;;;;;24.95;41.36;102302.13;4911931;28;121869;-82
2022/07/17 09:30:06;;;;;;;4.07;1.30;;;;;;;24.80;41.93;102296.00;4945826;28;122633;-82
2022/07/17 09:32:36;;;;;;;4.13;1.33;;;;;;;24.78;41.34;102284.53;4939834;28;120861;-82
2022/07/17 09:35:04;;;;;;;2.97;1.27;;;;;;;24.91;41.47;102289.63;4930060;28;121865;-84
2022/07/17 09:37:32;;;;;;;4.20;1.50;;;;;;;24.80;41.18;102282.75;4909273;28;124163;-83
2022/07/17 09:39:58;;;;;;;3.22;1.42;;;;;;;24.80;41.57;102298.81;4947844;28;121119;-82
2022/07/17 09:42:27;;;;;;;3.45;1.30;;;;;;;24.83;41.57;102297.03;4921088;28;124153;-82
2022/07/17 09:45:01;;;;;;;3.07;1.33;;;;;;;24.79;41.28;102295.25;4939932;28;121243;-83
2022/07/17 09:47:30;;;;;;;2.97;1.50;;;;;;;24.76;42.56;102284.28;4894271;28;121812;-82
2022/07/17 09:49:58;;;;;;;3.65;1.48;;;;;;;24.99;42.63;102283.00;4924877;28;122515;-82
2022/07/17 09:52:29;;;;;;;2.53;1.33;;;;;;;25.22;42.17;102292.13;4945729;28;121596;-82
2022/07/17 09:54:56;;;;;;;3.42;1.30;;;;;;;25.25;41.29;102268.63;4945768;28;123124;-82
2022/07/17 09:57:27;;;;;;;3.78;1.45;;;;;;;25.30;42.16;102289.53;4923957;28;124362;-83
2022/07/17 09:59:57;;;;;;;4.10;1.63;;;;;;;25.18;41.33;102290.88;4945168;28;121593;-82
2022/07/17 10:02:24;;;;;;;5.53;1.85;;;;;;;25.07;42.05;102269.94;4947398;28;121080;-82
2022/07/17 10:04:51;;;;;;;3.60;1.85;;;;;;;25.14;42.79;102281.94;4946711;28;121520;-82
2022/07/17 10:07:17;;;;;;;5.13;1.80;;;;;;;25.24;42.30;102283.19;4943473;28;121594;-83
2022/07/17 10:09:42;;;;;;;4.43;1.75;;;;;;;25.28;43.09;102289.28;4944622;28;121591;-82
2022/07/17 10:12:09;;;;;;;4.22;2.00;;;;;;;25.29;42.96;102282.41;4926668;28;121498;-81
2022/07/17 10:14:35;;;;;;;4.67;1.77;;;;;;;25.20;43.51;102279.88;4923433;28;121396;-82
2022/07/17 10:17:10;;;;;;;3.22;1.60;;;;;;;25.10;44.07;102285.03;4936035;28;121876;-82
2022/07/17 10:19:56;;;;;;;5.28;1.95;;;;;;;24.91;44.37;102281.97;4942896;28;121127;-81
2022/07/17 10:22:22;;;;;;;4.80;1.80;;;;;;;24.74;44.76;102282.00;4925305;28;121356;-82
2022/07/17 10:24:52;;;;;;;4.33;1.70;;;;;;;24.61;45.28;102281.00;4929503;28;122862;-80
2022/07/17 10:27:22;;;;;;;5.50;1.80;;;;;;;24.52;45.08;102292.44;4938078;28;122135;-82
2022/07/17 10:29:59;;;;;;;5.80;1.98;;;;;;;24.43;45.81;102277.41;4944517;28;120829;-82
2022/07/17 10:32:25;;;;;;;5.37;2.00;;;;;;;24.51;45.71;102286.09;4940199;28;120846;-82
2022/07/17 10:34:59;;;;;;;4.40;1.77;;;;;;;24.62;46.05;102282.53;4945565;28;120661;-82
2022/07/17 10:37:34;;;;;;;6.00;2.13;;;;;;;24.67;45.91;102285.31;4942409;28;121940;-83
2022/07/17 10:40:16;;;;;;;4.68;1.90;;;;;;;24.72;45.65;102298.56;4900233;28;122911;-82
2022/07/17 10:42:49;;;;;;;3.25;1.60;;;;;;;24.70;45.91;102301.13;4933580;28;122006;-82
2022/07/17 10:45:21;;;;;;;5.27;1.80;;;;;;;24.69;45.38;102296.78;4935176;28;122485;-81
2022/07/17 10:47:49;;;;;;;3.40;1.52;;;;;;;24.66;45.33;102297.06;4942520;28;120686;-82
2022/07/17 10:50:16;;;;;;;5.25;1.63;;;;;;;24.65;45.99;102292.72;4936808;28;124709;-82
2022/07/17 10:52:42;;;;;;;5.03;1.60;;;;;;;24.68;46.03;102294.50;4923950;28;120733;-82
2022/07/17 10:55:20;;;;;;;3.92;1.70;;;;;;;24.83;45.99;102294.22;4925098;28;121241;-82
2022/07/17 10:57:49;;;;;;;5.63;2.03;;;;;;;24.98;46.00;102284.25;4923170;28;123225;-81
2022/07/17 11:00:17;;;;;;;4.10;1.90;;;;;;;25.15;45.56;102289.09;4923673;28;121503;-82
2022/07/17 11:02:43;;;;;;;5.25;1.75;;;;;;;25.13;45.39;102286.03;4906805;28;124524;-83
2022/07/17 11:05:27;;;;;;;4.95;2.00;;;;;;;24.99;45.38;102280.19;4937053;28;122205;-83
2022/07/17 11:07:59;;;;;;;3.60;1.80;;;;;;;25.01;45.02;102277.63;4899841;28;121582;-82
2022/07/17 11:10:27;;;;;;;6.13;2.28;;;;;;;25.11;44.95;102291.41;4936332;28;121860;-82
2022/07/17 11:13:11;;;;;;;4.20;1.90;;;;;;;25.11;44.71;102283.00;4913827;28;122822;-81
2022/07/17 11:15:40;;;;;;;4.55;2.20;;;;;;;25.14;43.81;102291.13;4931956;28;123633;-82
2022/07/17 11:18:12;;;;;;;6.93;2.10;;;;;;;25.22;44.84;102280.13;4915352;28;124206;-82